createdAt,value
2023-01-23T00:01:49.867Z,9.30
2023-01-23T00:04:51.542Z,8.30
2023-01-23T00:07:53.318Z,9.87
2023-01-23T00:10:55.122Z,8.63
2023-01-23T00:13:57.955Z,9.97
2023-01-23T00:16:59.861Z,9.37
2023-01-23T00:20:01.853Z,9.03
2023-01-23T00:23:03.795Z,10.17
2023-01-23T00:26:15.673Z,9.93
2023-01-23T00:29:18.896Z,9.40
2023-01-23T00:32:20.720Z,10.90
2023-01-23T00:35:22.726Z,8.60
2023-01-23T00:38:24.474Z,10.13
2023-01-23T00:41:26.525Z,10.27
2023-01-23T00:44:28.624Z,9.73
2023-01-23T00:47:30.641Z,9.50
2023-01-23T00:50:32.386Z,9.00
2023-01-23T00:53:34.151Z,11.03
2023-01-23T00:56:35.927Z,9.10
2023-01-23T00:59:37.730Z,9.83
2023-01-23T01:02:39.545Z,10.00
2023-01-23T01:05:41.325Z,9.93
2023-01-23T01:08:43.285Z,8.80
2023-01-23T01:11:45.056Z,8.80
2023-01-23T01:14:46.847Z,8.87
2023-01-23T01:17:50.285Z,8.70
2023-01-23T01:20:53.176Z,8.33
2023-01-23T01:23:54.893Z,8.53
2023-01-23T01:26:56.605Z,7.97
2023-01-23T01:29:58.321Z,8.50
2023-01-23T01:33:01.192Z,9.17
2023-01-23T01:36:03.153Z,8.40
2023-01-23T01:39:04.945Z,8.47
2023-01-23T01:42:07.204Z,8.97
2023-01-23T01:45:47.503Z,9.73
2023-01-23T01:49:05.629Z,7.63
2023-01-23T01:52:10.725Z,7.80
2023-01-23T01:55:12.988Z,10.37
2023-01-23T01:58:14.918Z,8.23
2023-01-23T02:01:17.587Z,8.63
2023-01-23T02:04:19.460Z,9.73
2023-01-23T02:07:27.735Z,8.63
2023-01-23T02:10:29.638Z,8.77
2023-01-23T02:13:36.746Z,8.17
2023-01-23T02:16:41.191Z,8.83
2023-01-23T02:20:10.110Z,8.40
2023-01-23T02:23:37.690Z,8.83
2023-01-23T02:26:45.542Z,8.60
2023-01-23T02:29:48.351Z,9.33
2023-01-23T02:32:50.690Z,8.53
2023-01-23T02:35:52.655Z,8.20
2023-01-23T02:38:58.732Z,9.30
2023-01-23T02:42:01.078Z,9.13
2023-01-23T02:45:25.757Z,8.87
2023-01-23T02:48:27.748Z,8.90
2023-01-23T02:51:29.597Z,8.83
2023-01-23T02:54:31.767Z,8.40
2023-01-23T02:57:33.620Z,7.97
2023-01-23T03:00:36.300Z,8.27
2023-01-23T03:03:38.098Z,8.50
2023-01-23T03:06:39.929Z,8.53
2023-01-23T03:09:43.778Z,8.43
2023-01-23T03:12:45.488Z,8.40
2023-01-23T03:15:52.995Z,8.50
2023-01-23T03:18:55.229Z,8.90
2023-01-23T03:21:57.561Z,8.50
2023-01-23T03:24:59.357Z,7.97
2023-01-23T03:28:01.119Z,8.63
2023-01-23T03:31:02.923Z,8.93
2023-01-23T03:34:04.786Z,8.13
2023-01-23T03:37:09.568Z,8.10
2023-01-23T03:40:35.340Z,9.30
2023-01-23T03:43:37.956Z,7.73
2023-01-23T03:46:40.719Z,8.57
2023-01-23T03:49:42.488Z,7.83
2023-01-23T03:52:44.242Z,7.60
2023-01-23T03:55:47.370Z,8.03
2023-01-23T03:58:49.496Z,7.93
2023-01-23T04:01:53.495Z,7.97
2023-01-23T04:04:55.592Z,8.00
2023-01-23T04:07:57.434Z,8.77
2023-01-23T04:11:06.876Z,7.83
2023-01-23T04:14:08.830Z,8.33
2023-01-23T04:17:11.302Z,8.10
2023-01-23T04:20:14.062Z,8.37
2023-01-23T04:23:17.979Z,8.40
2023-01-23T04:26:19.861Z,7.70
2023-01-23T04:29:21.657Z,7.53
2023-01-23T04:32:23.897Z,7.20
2023-01-23T04:35:26.226Z,7.83
2023-01-23T04:38:29.725Z,7.80
2023-01-23T04:41:34.302Z,8.50
2023-01-23T04:44:40.628Z,6.80
2023-01-23T04:48:17.519Z,6.80
2023-01-23T04:51:19.318Z,7.87
2023-01-23T04:54:21.624Z,7.83
2023-01-23T04:57:23.550Z,6.87
2023-01-23T05:00:32.161Z,7.00
2023-01-23T05:03:35.460Z,7.17
2023-01-23T05:06:37.297Z,7.27
2023-01-23T05:09:40.578Z,7.00
2023-01-23T05:12:43.900Z,7.13
2023-01-23T05:15:45.741Z,7.53
2023-01-23T05:18:48.181Z,7.90
2023-01-23T05:21:50.650Z,6.53
2023-01-23T05:24:55.775Z,6.33
2023-01-23T05:28:00.758Z,6.40
2023-01-23T05:31:02.637Z,6.20
2023-01-23T05:34:13.262Z,8.57
2023-01-23T05:37:15.544Z,7.03
2023-01-23T05:40:22.498Z,6.93
2023-01-23T05:43:49.971Z,8.30
2023-01-23T05:47:05.394Z,7.27
2023-01-23T05:50:09.947Z,7.20
2023-01-23T05:53:12.833Z,5.77
2023-01-23T05:56:15.663Z,6.63
2023-01-23T05:59:37.627Z,6.93
2023-01-23T06:03:08.604Z,7.03
2023-01-23T06:06:23.757Z,7.43
2023-01-23T06:09:25.566Z,6.40
2023-01-23T06:12:28.054Z,6.90
2023-01-23T06:15:29.797Z,6.63
2023-01-23T06:18:34.210Z,7.57
2023-01-23T06:21:36.346Z,6.77
2023-01-23T06:24:39.332Z,6.90
2023-01-23T06:27:41.112Z,6.40
2023-01-23T06:30:44.297Z,7.23
2023-01-23T06:33:57.204Z,6.83
2023-01-23T06:37:04.492Z,6.33
2023-01-23T06:40:07.180Z,7.00
2023-01-23T06:43:09.938Z,6.97
2023-01-23T06:46:12.270Z,7.07
2023-01-23T06:49:14.112Z,7.30
2023-01-23T06:52:15.846Z,6.30
2023-01-23T06:55:21.225Z,7.67
2023-01-23T06:58:23.575Z,6.90
2023-01-23T07:01:26.374Z,6.40
2023-01-23T07:04:51.993Z,7.30
2023-01-23T07:07:55.654Z,6.80
2023-01-23T07:10:57.392Z,7.33
2023-01-23T07:13:59.255Z,6.63
2023-01-23T07:17:02.715Z,7.63
2023-01-23T07:20:06.195Z,7.00
2023-01-23T07:23:14.657Z,6.07
2023-01-23T07:26:16.506Z,7.63
2023-01-23T07:29:18.203Z,7.13
2023-01-23T07:32:19.896Z,7.03
2023-01-23T07:35:22.435Z,6.70
2023-01-23T07:38:24.183Z,6.00
2023-01-23T07:41:25.907Z,4.97
2023-01-23T07:44:27.773Z,6.37
2023-01-23T07:47:29.530Z,6.83
2023-01-23T07:50:31.299Z,6.57
2023-01-23T07:53:33.697Z,6.67
2023-01-23T07:56:35.464Z,5.57
2023-01-23T07:59:37.183Z,6.13
2023-01-23T08:02:38.967Z,6.50
2023-01-23T08:05:43.546Z,7.23
2023-01-23T08:08:50.851Z,6.40
2023-01-23T08:11:53.019Z,6.60
2023-01-23T08:14:54.731Z,6.23
2023-01-23T08:17:56.427Z,6.00
2023-01-23T08:21:00.465Z,7.37
2023-01-23T08:24:04.678Z,7.53
2023-01-23T08:27:07.046Z,7.87
2023-01-23T08:30:10.233Z,6.10
2023-01-23T08:33:12.119Z,6.80
2023-01-23T08:36:13.985Z,6.70
2023-01-23T08:39:17.312Z,7.63
2023-01-23T08:42:19.114Z,7.30
2023-01-23T08:45:22.055Z,6.97
2023-01-23T08:48:25.119Z,7.27
2023-01-23T08:51:27.724Z,7.03
2023-01-23T08:54:29.538Z,7.47
2023-01-23T08:57:31.283Z,7.37
2023-01-23T09:00:34.011Z,7.63
2023-01-23T09:03:35.727Z,7.10
2023-01-23T09:06:37.467Z,8.17
2023-01-23T09:09:39.275Z,7.30
2023-01-23T09:12:42.653Z,7.80
2023-01-23T09:15:44.593Z,6.40
2023-01-23T09:18:46.373Z,7.27
2023-01-23T09:21:48.174Z,7.30
2023-01-23T09:24:49.972Z,6.87
2023-01-23T09:27:51.722Z,6.67
2023-01-23T09:30:53.544Z,7.00
2023-01-23T09:33:55.269Z,7.53
2023-01-23T09:36:57.011Z,8.23
2023-01-23T09:39:58.744Z,7.10
2023-01-23T09:43:21.553Z,7.67
2023-01-23T09:46:29.382Z,8.30
2023-01-23T09:49:53.009Z,8.83
2023-01-23T09:53:08.087Z,7.20
2023-01-23T09:56:30.217Z,7.70
2023-01-23T09:59:53.684Z,7.53
2023-01-23T10:03:10.456Z,7.00
2023-01-23T10:06:26.007Z,5.47
2023-01-23T10:09:33.845Z,5.90
2023-01-23T10:13:02.972Z,6.73
2023-01-23T10:16:04.631Z,6.40
2023-01-23T10:19:18.299Z,5.73
2023-01-23T10:22:44.437Z,5.43
2023-01-23T10:25:47.659Z,4.83
2023-01-23T10:28:54.751Z,4.53
2023-01-23T10:32:01.372Z,4.47
2023-01-23T10:35:15.328Z,5.20
2023-01-23T10:38:26.156Z,4.37
2023-01-23T10:41:28.015Z,4.23
2023-01-23T10:44:29.755Z,3.73
2023-01-23T10:47:43.018Z,4.17
2023-01-23T10:50:44.966Z,4.03
2023-01-23T10:54:10.215Z,4.77
2023-01-23T10:57:13.063Z,4.33
2023-01-23T11:00:24.861Z,5.83
2023-01-23T11:03:30.175Z,5.13
2023-01-23T11:06:31.913Z,4.80
2023-01-23T11:09:44.745Z,5.47
2023-01-23T11:12:49.317Z,5.40
2023-01-23T11:15:51.780Z,5.30
2023-01-23T11:19:02.850Z,4.90
2023-01-23T11:22:05.497Z,5.73
2023-01-23T11:25:30.648Z,6.07
2023-01-23T11:28:35.319Z,5.27
2023-01-23T11:31:37.197Z,5.70
2023-01-23T11:34:46.025Z,5.13
2023-01-23T11:37:47.812Z,5.17
2023-01-23T11:40:49.523Z,6.00
2023-01-23T11:43:52.560Z,6.73
2023-01-23T11:47:31.783Z,5.73
2023-01-23T11:50:55.310Z,4.93
2023-01-23T11:54:17.055Z,5.20
2023-01-23T11:57:27.452Z,6.13
2023-01-23T12:00:44.150Z,6.10
2023-01-23T12:04:10.764Z,7.90
2023-01-23T12:07:20.963Z,6.53
2023-01-23T12:10:47.908Z,6.23
2023-01-23T12:14:21.117Z,6.73
2023-01-23T12:17:28.631Z,8.10
2023-01-23T12:20:58.393Z,6.97
2023-01-23T12:24:51.727Z,6.80
2023-01-23T12:28:02.999Z,6.50
2023-01-23T12:31:52.552Z,6.70
2023-01-23T12:35:05.084Z,7.40
2023-01-23T12:38:11.547Z,7.53
2023-01-23T12:41:19.402Z,6.63
2023-01-23T12:44:35.100Z,7.33
2023-01-23T12:47:48.578Z,8.17
2023-01-23T12:51:00.817Z,6.67
2023-01-23T12:54:07.349Z,7.33
2023-01-23T12:57:10.893Z,7.80
2023-01-23T13:00:41.997Z,7.40
2023-01-23T13:04:03.016Z,8.10
2023-01-23T13:07:26.521Z,8.67
2023-01-23T13:10:55.807Z,7.43
2023-01-23T13:13:57.688Z,7.87
2023-01-23T13:17:03.958Z,7.37
2023-01-23T13:20:43.621Z,7.73
2023-01-23T13:23:45.718Z,8.07
2023-01-23T13:26:47.539Z,7.10
2023-01-23T13:29:50.709Z,7.97
2023-01-23T13:33:00.677Z,8.47
2023-01-23T13:36:25.916Z,9.00
2023-01-23T13:39:29.754Z,8.13
2023-01-23T13:42:35.672Z,9.03
2023-01-23T13:45:37.607Z,8.43
2023-01-23T14:23:40.270Z,10.07
2023-01-23T14:26:49.462Z,9.17
2023-01-23T14:30:10.136Z,10.00
2023-01-23T14:33:16.922Z,10.20
2023-01-23T14:36:19.591Z,10.07
2023-01-23T14:39:29.044Z,9.50
2023-01-23T14:42:31.850Z,9.73
2023-01-23T14:45:34.421Z,10.13
2023-01-23T14:48:40.950Z,9.90
2023-01-23T14:51:58.988Z,9.57
2023-01-23T14:55:07.523Z,8.67
2023-01-23T14:58:22.898Z,8.93
2023-01-23T15:01:25.999Z,9.23
2023-01-23T15:04:29.618Z,9.33
2023-01-23T15:07:31.377Z,9.53
2023-01-23T15:10:43.824Z,9.83
2023-01-23T15:13:55.581Z,29.57
2023-01-23T15:17:06.348Z,14.43
2023-01-23T15:20:32.359Z,11.80
2023-01-23T15:23:39.273Z,13.10
2023-01-23T15:26:43.066Z,10.63
2023-01-23T15:29:44.818Z,9.30
2023-01-23T15:32:46.550Z,9.93
2023-01-23T15:35:48.532Z,10.00
2023-01-23T15:38:50.435Z,8.37
2023-01-23T15:42:04.609Z,9.50
2023-01-23T15:45:13.609Z,10.00
2023-01-23T15:48:15.346Z,9.73
2023-01-23T15:51:17.095Z,9.97
2023-01-23T15:54:24.750Z,9.27
2023-01-23T15:57:26.685Z,8.87
2023-01-23T16:00:29.798Z,9.53
2023-01-23T16:03:31.647Z,9.87
2023-01-23T16:06:33.594Z,8.93
2023-01-23T16:09:37.898Z,9.00
2023-01-23T16:12:40.178Z,11.13
2023-01-23T16:15:42.056Z,9.33
2023-01-23T16:18:44.208Z,11.40
2023-01-23T16:21:52.904Z,10.07
2023-01-23T16:25:01.173Z,10.00
2023-01-23T16:28:02.926Z,9.40
2023-01-23T16:31:04.735Z,10.23
2023-01-23T16:34:06.453Z,9.67
2023-01-23T16:37:15.940Z,10.40
2023-01-23T16:40:23.598Z,11.53
2023-01-23T16:43:25.882Z,11.17
2023-01-23T16:46:27.658Z,11.57
2023-01-23T16:49:29.356Z,10.40
2023-01-23T16:52:31.143Z,9.37
2023-01-23T16:55:38.268Z,9.40
2023-01-23T16:58:40.976Z,9.20
2023-01-23T17:01:45.453Z,12.77
2023-01-23T17:04:47.392Z,11.27
2023-01-23T17:07:49.201Z,18.53
2023-01-23T17:10:55.193Z,12.30
2023-01-23T17:14:04.587Z,9.93
2023-01-23T17:17:13.021Z,9.50
2023-01-23T17:20:14.838Z,9.50
2023-01-23T17:23:16.828Z,9.00
2023-01-23T17:26:20.721Z,10.03
2023-01-23T17:29:22.939Z,10.67
2023-01-23T17:32:34.556Z,8.97
2023-01-23T17:35:37.349Z,9.30
2023-01-23T17:38:40.256Z,9.57
2023-01-23T17:41:41.985Z,10.03
2023-01-23T17:44:43.742Z,9.73
2023-01-23T17:47:51.922Z,9.30
2023-01-23T17:50:53.853Z,9.90
2023-01-23T17:53:55.642Z,10.43
2023-01-23T17:56:57.413Z,9.47
2023-01-23T17:59:59.147Z,9.50
2023-01-23T18:03:02.540Z,8.50
2023-01-23T18:06:04.372Z,9.07
2023-01-23T18:09:06.064Z,8.87
2023-01-23T18:12:14.846Z,9.67
2023-01-23T18:15:29.289Z,9.57
2023-01-23T18:18:38.917Z,9.00
2023-01-23T18:21:40.987Z,8.80
2023-01-23T18:24:43.004Z,10.13
2023-01-23T18:27:50.292Z,10.50
2023-01-23T18:31:00.280Z,9.43
2023-01-23T18:34:30.455Z,12.60
2023-01-23T18:37:59.350Z,11.10
2023-01-23T18:41:18.633Z,15.20
2023-01-23T18:44:26.089Z,10.03
2023-01-23T18:47:28.130Z,9.70
2023-01-23T18:50:30.147Z,11.43
2023-01-23T18:53:53.595Z,9.57
2023-01-23T18:57:01.579Z,9.73
2023-01-23T19:00:16.526Z,9.37
2023-01-23T19:03:19.144Z,9.63
2023-01-23T19:06:26.159Z,9.93
2023-01-23T19:09:31.503Z,9.97
2023-01-23T19:13:00.234Z,10.27
2023-01-23T19:16:06.557Z,10.30
2023-01-23T19:19:40.160Z,10.03
2023-01-23T19:23:15.991Z,9.87
2023-01-23T19:26:18.637Z,10.30
2023-01-23T19:29:22.671Z,10.57
2023-01-23T19:32:25.186Z,9.60
2023-01-23T19:35:27.035Z,10.13
2023-01-23T19:38:28.789Z,9.57
2023-01-23T19:41:41.174Z,9.70
2023-01-23T19:44:44.372Z,9.23
2023-01-23T19:47:49.020Z,10.67
2023-01-23T19:50:50.758Z,9.60
2023-01-23T19:53:53.448Z,9.70
2023-01-23T19:56:55.199Z,10.73
2023-01-23T19:59:56.916Z,10.50
2023-01-23T20:02:59.401Z,9.93
2023-01-23T20:06:01.300Z,9.33
2023-01-23T20:09:03.085Z,11.37
2023-01-23T20:12:05.073Z,9.83
2023-01-23T20:15:07.515Z,10.47
2023-01-23T20:18:10.745Z,10.97
2023-01-23T20:21:12.595Z,10.63
2023-01-23T20:24:14.763Z,10.00
2023-01-23T20:27:16.525Z,10.13
2023-01-23T20:30:20.551Z,9.87
2023-01-23T20:33:24.482Z,10.50
2023-01-23T20:36:26.364Z,10.73
2023-01-23T20:39:28.112Z,11.63
2023-01-23T20:42:29.853Z,10.97
2023-01-23T20:45:31.875Z,10.50
2023-01-23T20:48:37.876Z,11.53
2023-01-23T20:51:39.598Z,10.63
2023-01-23T20:54:41.310Z,9.80
2023-01-23T20:58:01.594Z,10.03
2023-01-23T21:01:03.567Z,9.93
2023-01-23T21:04:05.351Z,10.37
2023-01-23T21:07:07.076Z,11.10
2023-01-23T21:10:09.242Z,11.47
2023-01-23T21:13:12.140Z,10.63
2023-01-23T21:16:15.716Z,9.07
2023-01-23T21:19:17.756Z,8.77
2023-01-23T21:22:19.492Z,9.23
2023-01-23T21:25:21.414Z,10.97
2023-01-23T21:28:23.236Z,10.03
2023-01-23T21:31:28.575Z,8.87
2023-01-23T21:34:30.602Z,9.30
2023-01-23T21:37:32.363Z,9.53
2023-01-23T21:40:34.052Z,9.47
2023-01-23T21:43:35.856Z,8.83
2023-01-23T21:46:37.676Z,10.47
2023-01-23T21:49:39.403Z,8.33
2023-01-23T21:52:41.108Z,9.13
2023-01-23T21:55:42.794Z,10.00
2023-01-23T21:58:45.133Z,7.50
2023-01-23T22:01:47.023Z,9.73
2023-01-23T22:04:48.816Z,9.10
2023-01-23T22:07:50.690Z,8.47
2023-01-23T22:10:52.459Z,8.87
2023-01-23T22:13:55.234Z,8.20
2023-01-23T22:16:57.006Z,8.90
2023-01-23T22:19:58.793Z,8.53
2023-01-23T22:23:00.545Z,7.70
2023-01-23T22:26:07.758Z,8.27
2023-01-23T22:29:10.739Z,7.53
2023-01-23T22:32:12.549Z,8.37
2023-01-23T22:35:14.345Z,8.10
2023-01-23T22:38:16.374Z,7.93
2023-01-23T22:41:18.545Z,7.43
2023-01-23T22:44:20.360Z,7.80
2023-01-23T22:47:22.065Z,7.70
2023-01-23T22:50:24.241Z,7.13
2023-01-23T22:53:25.925Z,7.83
2023-01-23T22:56:28.405Z,7.57
2023-01-23T22:59:30.166Z,7.43
2023-01-23T23:02:31.921Z,7.90
2023-01-23T23:05:33.665Z,7.40
2023-01-23T23:08:35.946Z,8.33
2023-01-23T23:11:39.508Z,6.83
2023-01-23T23:14:41.405Z,8.23
2023-01-23T23:17:43.152Z,8.23
2023-01-23T23:20:44.902Z,7.30
2023-01-23T23:23:47.029Z,7.80
2023-01-23T23:26:48.860Z,8.73
2023-01-23T23:29:50.575Z,8.07
2023-01-23T23:32:52.296Z,7.53
2023-01-23T23:35:54.550Z,6.53
2023-01-23T23:38:56.381Z,7.27
2023-01-23T23:41:58.643Z,6.73
2023-01-23T23:45:00.376Z,7.27
2023-01-23T23:48:02.271Z,6.73
2023-01-23T23:51:07.214Z,6.20
2023-01-23T23:54:08.934Z,6.40
2023-01-23T23:57:10.636Z,7.03
